sensor_id;sensor_type;location;lat;lon;timestamp;temperature;humidity
41435;DHT22;27177;22.262;114.192;2023-03-31T00:00:33;19.30;99.90
41435;DHT22;27177;22.262;114.192;2023-03-31T00:02:59;19.30;99.90
41435;DHT22;27177;22.262;114.192;2023-03-31T00:05:27;19.30;99.90
41435;DHT22;27177;22.262;114.192;2023-03-31T00:07:56;19.30;99.90
41435;DHT22;27177;22.262;114.192;2023-03-31T00:10:29;19.30;99.90
41435;DHT22;27177;22.262;114.192;2023-03-31T00:13:16;19.30;99.90
41435;DHT22;27177;22.262;114.192;2023-03-31T00:15:42;19.30;99.90
41435;DHT22;27177;22.262;114.192;2023-03-31T00:20:44;19.30;99.90
41435;DHT22;27177;22.262;114.192;2023-03-31T00:31:18;19.30;99.90
41435;DHT22;27177;22.262;114.192;2023-03-31T00:36:21;19.30;99.90
41435;DHT22;27177;22.262;114.192;2023-03-31T00:38:52;19.30;99.90
41435;DHT22;27177;22.262;114.192;2023-03-31T00:41:19;19.30;99.90
41435;DHT22;27177;22.262;114.192;2023-03-31T00:44:04;19.30;99.90
41435;DHT22;27177;22.262;114.192;2023-03-31T00:49:11;19.30;99.90
41435;DHT22;27177;22.262;114.192;2023-03-31T00:56:46;19.40;99.90
41435;DHT22;27177;22.262;114.192;2023-03-31T00:59:14;19.40;99.90
41435;DHT22;27177;22.262;114.192;2023-03-31T01:01:41;19.50;99.90
41435;DHT22;27177;22.262;114.192;2023-03-31T01:04:09;19.50;99.90
41435;DHT22;27177;22.262;114.192;2023-03-31T01:06:42;19.50;99.90
41435;DHT22;27177;22.262;114.192;2023-03-31T01:09:11;19.60;99.90
41435;DHT22;27177;22.262;114.192;2023-03-31T01:11:38;19.60;99.90
41435;DHT22;27177;22.262;114.192;2023-03-31T01:14:07;19.50;99.90
41435;DHT22;27177;22.262;114.192;2023-03-31T01:35:20;19.60;99.90
41435;DHT22;27177;22.262;114.192;2023-03-31T01:58:31;19.70;99.90
41435;DHT22;27177;22.262;114.192;2023-03-31T02:06:24;19.70;99.90
41435;DHT22;27177;22.262;114.192;2023-03-31T02:08:54;19.70;99.90
41435;DHT22;27177;22.262;114.192;2023-03-31T02:16:33;19.70;99.90
41435;DHT22;27177;22.262;114.192;2023-03-31T02:19:03;19.70;99.90
41435;DHT22;27177;22.262;114.192;2023-03-31T02:21:43;19.70;99.90
41435;DHT22;27177;22.262;114.192;2023-03-31T02:24:16;19.70;99.90
41435;DHT22;27177;22.262;114.192;2023-03-31T02:29:28;19.60;99.90
41435;DHT22;27177;22.262;114.192;2023-03-31T02:34:30;19.60;99.90
41435;DHT22;27177;22.262;114.192;2023-03-31T02:39:32;19.70;99.90
41435;DHT22;27177;22.262;114.192;2023-03-31T02:41:59;19.70;99.90
41435;DHT22;27177;22.262;114.192;2023-03-31T02:44:32;19.80;99.90
41435;DHT22;27177;22.262;114.192;2023-03-31T02:46:59;19.80;99.90
41435;DHT22;27177;22.262;114.192;2023-03-31T02:49:25;19.80;99.90
41435;DHT22;27177;22.262;114.192;2023-03-31T02:57:19;19.80;99.90
41435;DHT22;27177;22.262;114.192;2023-03-31T03:02:36;19.70;99.90
41435;DHT22;27177;22.262;114.192;2023-03-31T03:15:20;19.70;99.90
41435;DHT22;27177;22.262;114.192;2023-03-31T03:17:49;19.80;99.90
41435;DHT22;27177;22.262;114.192;2023-03-31T03:20:17;19.70;99.90
41435;DHT22;27177;22.262;114.192;2023-03-31T03:22:44;19.80;99.90
41435;DHT22;27177;22.262;114.192;2023-03-31T03:25:11;19.70;99.90
41435;DHT22;27177;22.262;114.192;2023-03-31T03:27:38;19.70;99.90
41435;DHT22;27177;22.262;114.192;2023-03-31T03:30:05;19.80;99.90
41435;DHT22;27177;22.262;114.192;2023-03-31T03:35:17;19.80;99.90
41435;DHT22;27177;22.262;114.192;2023-03-31T03:37:44;19.80;99.90
41435;DHT22;27177;22.262;114.192;2023-03-31T03:40:11;19.90;99.90
41435;DHT22;27177;22.262;114.192;2023-03-31T03:42:37;19.80;99.90
41435;DHT22;27177;22.262;114.192;2023-03-31T03:45:04;19.70;99.90
41435;DHT22;27177;22.262;114.192;2023-03-31T03:47:30;19.80;99.90
41435;DHT22;27177;22.262;114.192;2023-03-31T03:49:56;19.80;99.90
41435;DHT22;27177;22.262;114.192;2023-03-31T03:52:23;19.80;99.90
41435;DHT22;27177;22.262;114.192;2023-03-31T03:57:18;19.90;99.90
41435;DHT22;27177;22.262;114.192;2023-03-31T03:59:45;19.90;99.90
41435;DHT22;27177;22.262;114.192;2023-03-31T04:02:21;19.90;99.90
41435;DHT22;27177;22.262;114.192;2023-03-31T04:04:47;19.90;99.90
41435;DHT22;27177;22.262;114.192;2023-03-31T04:07:15;19.90;99.90
41435;DHT22;27177;22.262;114.192;2023-03-31T04:09:44;19.90;99.90
41435;DHT22;27177;22.262;114.192;2023-03-31T04:14:47;19.70;99.90
41435;DHT22;27177;22.262;114.192;2023-03-31T04:17:14;19.70;99.90
41435;DHT22;27177;22.262;114.192;2023-03-31T04:19:43;19.60;99.90
41435;DHT22;27177;22.262;114.192;2023-03-31T04:22:09;19.60;99.90
41435;DHT22;27177;22.262;114.192;2023-03-31T04:24:36;19.60;99.90
41435;DHT22;27177;22.262;114.192;2023-03-31T04:27:03;19.60;99.90
41435;DHT22;27177;22.262;114.192;2023-03-31T04:29:32;19.50;99.90
41435;DHT22;27177;22.262;114.192;2023-03-31T04:31:58;19.50;99.90
41435;DHT22;27177;22.262;114.192;2023-03-31T04:34:25;19.50;99.90
41435;DHT22;27177;22.262;114.192;2023-03-31T04:36:59;19.50;99.90
41435;DHT22;27177;22.262;114.192;2023-03-31T04:39:27;19.50;99.90
41435;DHT22;27177;22.262;114.192;2023-03-31T04:47:06;19.50;99.90
41435;DHT22;27177;22.262;114.192;2023-03-31T04:57:46;19.60;99.90
41435;DHT22;27177;22.262;114.192;2023-03-31T05:00:13;19.60;99.90
41435;DHT22;27177;22.262;114.192;2023-03-31T05:02:40;19.60;99.90
41435;DHT22;27177;22.262;114.192;2023-03-31T05:07:45;19.60;99.90
41435;DHT22;27177;22.262;114.192;2023-03-31T05:10:11;19.60;99.90
41435;DHT22;27177;22.262;114.192;2023-03-31T05:12:38;19.60;99.90
41435;DHT22;27177;22.262;114.192;2023-03-31T05:22:52;19.70;99.90
41435;DHT22;27177;22.262;114.192;2023-03-31T05:25:21;19.70;99.90
41435;DHT22;27177;22.262;114.192;2023-03-31T05:27:48;19.70;99.90
41435;DHT22;27177;22.262;114.192;2023-03-31T05:36:00;19.80;99.90
41435;DHT22;27177;22.262;114.192;2023-03-31T05:41:02;19.80;99.90
41435;DHT22;27177;22.262;114.192;2023-03-31T05:46:06;19.70;99.90
41435;DHT22;27177;22.262;114.192;2023-03-31T05:58:46;19.50;99.90
41435;DHT22;27177;22.262;114.192;2023-03-31T06:01:15;19.50;99.90
41435;DHT22;27177;22.262;114.192;2023-03-31T06:15:15;19.50;99.90
41435;DHT22;27177;22.262;114.192;2023-03-31T06:17:41;19.50;99.90
41435;DHT22;27177;22.262;114.192;2023-03-31T06:20:08;19.50;99.90
41435;DHT22;27177;22.262;114.192;2023-03-31T06:22:36;19.50;99.90
41435;DHT22;27177;22.262;114.192;2023-03-31T06:25:02;19.50;99.90
41435;DHT22;27177;22.262;114.192;2023-03-31T06:27:28;19.50;99.90
41435;DHT22;27177;22.262;114.192;2023-03-31T06:29:55;19.50;99.90
41435;DHT22;27177;22.262;114.192;2023-03-31T06:35:02;19.50;99.90
41435;DHT22;27177;22.262;114.192;2023-03-31T06:37:38;19.50;99.90
41435;DHT22;27177;22.262;114.192;2023-03-31T06:45:19;19.50;99.90
41435;DHT22;27177;22.262;114.192;2023-03-31T06:47:46;19.50;99.90
41435;DHT22;27177;22.262;114.192;2023-03-31T06:50:12;19.50;99.90
41435;DHT22;27177;22.262;114.192;2023-03-31T06:57:49;19.50;99.90
41435;DHT22;27177;22.262;114.192;2023-03-31T07:00:16;19.50;99.90
41435;DHT22;27177;22.262;114.192;2023-03-31T07:07:48;19.40;99.90
41435;DHT22;27177;22.262;114.192;2023-03-31T07:10:14;19.30;99.90
41435;DHT22;27177;22.262;114.192;2023-03-31T07:12:40;19.40;99.90
41435;DHT22;27177;22.262;114.192;2023-03-31T07:15:07;19.40;99.90
41435;DHT22;27177;22.262;114.192;2023-03-31T07:17:34;19.40;99.90
41435;DHT22;27177;22.262;114.192;2023-03-31T07:20:02;19.40;99.90
41435;DHT22;27177;22.262;114.192;2023-03-31T07:22:40;19.40;99.90
41435;DHT22;27177;22.262;114.192;2023-03-31T07:25:09;19.30;99.90
41435;DHT22;27177;22.262;114.192;2023-03-31T07:27:35;19.30;99.90
41435;DHT22;27177;22.262;114.192;2023-03-31T07:30:05;19.30;99.90
41435;DHT22;27177;22.262;114.192;2023-03-31T07:32:31;19.30;99.90
41435;DHT22;27177;22.262;114.192;2023-03-31T07:35:05;19.30;99.90
41435;DHT22;27177;22.262;114.192;2023-03-31T07:37:35;19.30;99.90
41435;DHT22;27177;22.262;114.192;2023-03-31T07:40:02;19.20;99.90
41435;DHT22;27177;22.262;114.192;2023-03-31T07:42:30;19.30;99.90
41435;DHT22;27177;22.262;114.192;2023-03-31T07:44:56;19.30;99.90
41435;DHT22;27177;22.262;114.192;2023-03-31T07:47:25;19.20;99.90
41435;DHT22;27177;22.262;114.192;2023-03-31T07:49:52;19.20;99.90
41435;DHT22;27177;22.262;114.192;2023-03-31T07:52:19;19.20;99.90
41435;DHT22;27177;22.262;114.192;2023-03-31T07:54:46;19.20;99.90
41435;DHT22;27177;22.262;114.192;2023-03-31T07:57:12;19.20;99.90
41435;DHT22;27177;22.262;114.192;2023-03-31T07:59:45;19.20;99.90
41435;DHT22;27177;22.262;114.192;2023-03-31T08:02:12;19.10;99.90
41435;DHT22;27177;22.262;114.192;2023-03-31T08:04:39;19.10;99.90
41435;DHT22;27177;22.262;114.192;2023-03-31T08:07:09;19.10;99.90
41435;DHT22;27177;22.262;114.192;2023-03-31T08:09:37;19.10;99.90
41435;DHT22;27177;22.262;114.192;2023-03-31T08:12:07;19.10;99.90
41435;DHT22;27177;22.262;114.192;2023-03-31T08:14:33;19.10;99.90
41435;DHT22;27177;22.262;114.192;2023-03-31T08:16:59;19.10;99.90
41435;DHT22;27177;22.262;114.192;2023-03-31T08:19:28;19.10;99.90
41435;DHT22;27177;22.262;114.192;2023-03-31T08:21:55;19.10;99.90
41435;DHT22;27177;22.262;114.192;2023-03-31T08:26:57;19.10;99.90
41435;DHT22;27177;22.262;114.192;2023-03-31T08:29:23;19.10;99.90
41435;DHT22;27177;22.262;114.192;2023-03-31T08:37:01;19.10;99.90
41435;DHT22;27177;22.262;114.192;2023-03-31T08:39:31;19.10;99.90
41435;DHT22;27177;22.262;114.192;2023-03-31T08:42:41;19.00;99.90
41435;DHT22;27177;22.262;114.192;2023-03-31T08:45:02;19.00;99.90
41435;DHT22;27177;22.262;114.192;2023-03-31T08:47:31;19.00;99.90
41435;DHT22;27177;22.262;114.192;2023-03-31T08:50:02;19.00;99.90
41435;DHT22;27177;22.262;114.192;2023-03-31T08:52:37;19.00;99.90
41435;DHT22;27177;22.262;114.192;2023-03-31T08:55:09;19.00;99.90
41435;DHT22;27177;22.262;114.192;2023-03-31T08:57:42;19.00;99.90
41435;DHT22;27177;22.262;114.192;2023-03-31T09:00:15;19.00;99.90
41435;DHT22;27177;22.262;114.192;2023-03-31T09:16:12;19.00;99.90
41435;DHT22;27177;22.262;114.192;2023-03-31T09:18:47;19.00;99.90
41435;DHT22;27177;22.262;114.192;2023-03-31T09:29:20;19.00;99.90
41435;DHT22;27177;22.262;114.192;2023-03-31T09:31:50;18.90;99.90
41435;DHT22;27177;22.262;114.192;2023-03-31T09:36:52;18.90;99.90
41435;DHT22;27177;22.262;114.192;2023-03-31T09:39:31;18.80;99.90
41435;DHT22;27177;22.262;114.192;2023-03-31T09:41:57;18.80;99.90
41435;DHT22;27177;22.262;114.192;2023-03-31T09:44:58;18.80;99.90
41435;DHT22;27177;22.262;114.192;2023-03-31T09:47:25;18.80;99.90
41435;DHT22;27177;22.262;114.192;2023-03-31T09:49:54;18.80;99.90
41435;DHT22;27177;22.262;114.192;2023-03-31T09:54:50;18.80;99.90
41435;DHT22;27177;22.262;114.192;2023-03-31T09:57:28;18.70;99.90
41435;DHT22;27177;22.262;114.192;2023-03-31T10:02:35;18.70;99.90
41435;DHT22;27177;22.262;114.192;2023-03-31T10:05:03;18.70;99.90
41435;DHT22;27177;22.262;114.192;2023-03-31T10:07:30;18.80;99.90
41435;DHT22;27177;22.262;114.192;2023-03-31T10:09:57;18.80;99.90
41435;DHT22;27177;22.262;114.192;2023-03-31T10:12:25;18.80;99.90
41435;DHT22;27177;22.262;114.192;2023-03-31T10:14:53;18.80;99.90
41435;DHT22;27177;22.262;114.192;2023-03-31T10:17:21;18.80;99.90
41435;DHT22;27177;22.262;114.192;2023-03-31T10:19:49;18.80;99.90
41435;DHT22;27177;22.262;114.192;2023-03-31T10:40:20;18.80;99.90
41435;DHT22;27177;22.262;114.192;2023-03-31T10:42:57;18.90;99.90
41435;DHT22;27177;22.262;114.192;2023-03-31T10:45:25;18.90;99.90
41435;DHT22;27177;22.262;114.192;2023-03-31T10:47:56;18.90;99.90
41435;DHT22;27177;22.262;114.192;2023-03-31T10:50:26;18.90;99.90
41435;DHT22;27177;22.262;114.192;2023-03-31T10:53:11;18.90;99.90
41435;DHT22;27177;22.262;114.192;2023-03-31T10:55:40;18.90;99.90
41435;DHT22;27177;22.262;114.192;2023-03-31T10:58:21;18.90;99.90
41435;DHT22;27177;22.262;114.192;2023-03-31T11:21:48;18.90;99.90
41435;DHT22;27177;22.262;114.192;2023-03-31T11:24:24;18.90;99.90
41435;DHT22;27177;22.262;114.192;2023-03-31T11:26:56;18.90;99.90
41435;DHT22;27177;22.262;114.192;2023-03-31T11:34:58;18.90;99.90
41435;DHT22;27177;22.262;114.192;2023-03-31T11:40:06;18.90;99.90
41435;DHT22;27177;22.262;114.192;2023-03-31T11:42:48;18.90;99.90
41435;DHT22;27177;22.262;114.192;2023-03-31T11:45:29;18.90;99.90
41435;DHT22;27177;22.262;114.192;2023-03-31T11:47:59;18.90;99.90
41435;DHT22;27177;22.262;114.192;2023-03-31T11:50:32;18.90;99.90
41435;DHT22;27177;22.262;114.192;2023-03-31T11:53:04;18.90;99.90
41435;DHT22;27177;22.262;114.192;2023-03-31T12:04:05;18.90;99.90
41435;DHT22;27177;22.262;114.192;2023-03-31T12:06:09;18.90;99.90
41435;DHT22;27177;22.262;114.192;2023-03-31T12:08:53;18.90;99.90
41435;DHT22;27177;22.262;114.192;2023-03-31T12:11:24;18.90;99.90
41435;DHT22;27177;22.262;114.192;2023-03-31T12:16:46;18.90;99.90
41435;DHT22;27177;22.262;114.192;2023-03-31T12:24:24;18.90;99.90
41435;DHT22;27177;22.262;114.192;2023-03-31T12:34:25;18.90;99.90
41435;DHT22;27177;22.262;114.192;2023-03-31T12:36:59;18.90;99.90
41435;DHT22;27177;22.262;114.192;2023-03-31T12:39:49;18.90;99.90
41435;DHT22;27177;22.262;114.192;2023-03-31T12:47:43;18.90;99.90
41435;DHT22;27177;22.262;114.192;2023-03-31T12:53:04;18.90;99.90
41435;DHT22;27177;22.262;114.192;2023-03-31T13:06:02;18.90;99.90
41435;DHT22;27177;22.262;114.192;2023-03-31T13:08:48;18.90;99.90
41435;DHT22;27177;22.262;114.192;2023-03-31T13:11:15;18.80;99.90
41435;DHT22;27177;22.262;114.192;2023-03-31T13:14:06;18.90;99.90
41435;DHT22;27177;22.262;114.192;2023-03-31T13:16:31;18.90;99.90
41435;DHT22;27177;22.262;114.192;2023-03-31T13:18:58;18.90;99.90
41435;DHT22;27177;22.262;114.192;2023-03-31T13:21:25;18.90;99.90
41435;DHT22;27177;22.262;114.192;2023-03-31T13:23:51;18.90;99.90
41435;DHT22;27177;22.262;114.192;2023-03-31T13:26:38;18.90;99.90
41435;DHT22;27177;22.262;114.192;2023-03-31T13:29:24;18.90;99.90
41435;DHT22;27177;22.262;114.192;2023-03-31T13:34:20;18.90;99.90
41435;DHT22;27177;22.262;114.192;2023-03-31T13:36:58;18.80;99.90
41435;DHT22;27177;22.262;114.192;2023-03-31T13:39:35;18.80;99.90
41435;DHT22;27177;22.262;114.192;2023-03-31T13:42:24;18.80;99.90
41435;DHT22;27177;22.262;114.192;2023-03-31T13:52:52;18.80;99.90
41435;DHT22;27177;22.262;114.192;2023-03-31T14:05:40;18.80;99.90
41435;DHT22;27177;22.262;114.192;2023-03-31T14:08:13;18.80;99.90
41435;DHT22;27177;22.262;114.192;2023-03-31T14:10:43;18.80;99.90
41435;DHT22;27177;22.262;114.192;2023-03-31T14:15:40;18.80;99.90
41435;DHT22;27177;22.262;114.192;2023-03-31T14:18:11;18.80;99.90
41435;DHT22;27177;22.262;114.192;2023-03-31T14:20:40;18.70;99.90
41435;DHT22;27177;22.262;114.192;2023-03-31T14:23:26;18.70;99.90
41435;DHT22;27177;22.262;114.192;2023-03-31T14:37:01;18.70;99.90
41435;DHT22;27177;22.262;114.192;2023-03-31T14:39:32;18.70;99.90
41435;DHT22;27177;22.262;114.192;2023-03-31T14:45:06;18.70;99.90
41435;DHT22;27177;22.262;114.192;2023-03-31T14:47:38;18.60;99.90
41435;DHT22;27177;22.262;114.192;2023-03-31T14:50:11;18.70;99.90
41435;DHT22;27177;22.262;114.192;2023-03-31T14:52:38;18.60;99.90
41435;DHT22;27177;22.262;114.192;2023-03-31T14:57:39;18.60;99.90
41435;DHT22;27177;22.262;114.192;2023-03-31T15:00:06;18.60;99.90
41435;DHT22;27177;22.262;114.192;2023-03-31T15:02:35;18.60;99.90
41435;DHT22;27177;22.262;114.192;2023-03-31T15:05:03;18.60;99.90
41435;DHT22;27177;22.262;114.192;2023-03-31T15:07:32;18.60;99.90
41435;DHT22;27177;22.262;114.192;2023-03-31T15:09:58;18.60;99.90
41435;DHT22;27177;22.262;114.192;2023-03-31T15:12:25;18.60;99.90
41435;DHT22;27177;22.262;114.192;2023-03-31T15:14:54;18.60;99.90
41435;DHT22;27177;22.262;114.192;2023-03-31T15:17:22;18.50;99.90
41435;DHT22;27177;22.262;114.192;2023-03-31T15:19:53;18.50;99.90
41435;DHT22;27177;22.262;114.192;2023-03-31T15:22:23;18.50;99.90
41435;DHT22;27177;22.262;114.192;2023-03-31T15:24:51;18.60;99.90
41435;DHT22;27177;22.262;114.192;2023-03-31T15:29:50;18.50;99.90
41435;DHT22;27177;22.262;114.192;2023-03-31T15:32:29;18.50;99.90
41435;DHT22;27177;22.262;114.192;2023-03-31T15:34:57;18.50;99.90
41435;DHT22;27177;22.262;114.192;2023-03-31T15:37:28;18.50;99.90
41435;DHT22;27177;22.262;114.192;2023-03-31T15:42:31;18.50;99.90
41435;DHT22;27177;22.262;114.192;2023-03-31T15:47:49;18.40;99.90
41435;DHT22;27177;22.262;114.192;2023-03-31T15:50:19;18.40;99.90
41435;DHT22;27177;22.262;114.192;2023-03-31T15:55:31;18.40;99.90
41435;DHT22;27177;22.262;114.192;2023-03-31T15:58:04;18.40;99.90
41435;DHT22;27177;22.262;114.192;2023-03-31T16:02:57;18.40;99.90
41435;DHT22;27177;22.262;114.192;2023-03-31T16:08:09;18.30;99.90
41435;DHT22;27177;22.262;114.192;2023-03-31T16:10:37;18.40;99.90
41435;DHT22;27177;22.262;114.192;2023-03-31T16:13:05;18.40;99.90
41435;DHT22;27177;22.262;114.192;2023-03-31T16:15:34;18.40;99.90
41435;DHT22;27177;22.262;114.192;2023-03-31T16:18:02;18.40;99.90
41435;DHT22;27177;22.262;114.192;2023-03-31T16:20:31;18.40;99.90
41435;DHT22;27177;22.262;114.192;2023-03-31T16:23:10;18.50;99.90
41435;DHT22;27177;22.262;114.192;2023-03-31T16:25:38;18.50;99.90
41435;DHT22;27177;22.262;114.192;2023-03-31T16:28:05;18.50;99.90
41435;DHT22;27177;22.262;114.192;2023-03-31T16:30:34;18.50;99.90
41435;DHT22;27177;22.262;114.192;2023-03-31T16:45:58;18.40;99.90
41435;DHT22;27177;22.262;114.192;2023-03-31T16:48:28;18.40;99.90
41435;DHT22;27177;22.262;114.192;2023-03-31T16:50:58;18.40;99.90
41435;DHT22;27177;22.262;114.192;2023-03-31T16:53:30;18.40;99.90
41435;DHT22;27177;22.262;114.192;2023-03-31T16:55:56;18.40;99.90
41435;DHT22;27177;22.262;114.192;2023-03-31T17:00:58;18.40;99.90
41435;DHT22;27177;22.262;114.192;2023-03-31T17:03:25;18.40;99.90
41435;DHT22;27177;22.262;114.192;2023-03-31T17:05:52;18.40;99.90
41435;DHT22;27177;22.262;114.192;2023-03-31T17:11:05;18.40;99.90
41435;DHT22;27177;22.262;114.192;2023-03-31T17:14:01;18.40;99.90
41435;DHT22;27177;22.262;114.192;2023-03-31T17:16:30;18.40;99.90
41435;DHT22;27177;22.262;114.192;2023-03-31T17:19:01;18.40;99.90
41435;DHT22;27177;22.262;114.192;2023-03-31T17:21:30;18.40;99.90
41435;DHT22;27177;22.262;114.192;2023-03-31T17:24:07;18.40;99.90
41435;DHT22;27177;22.262;114.192;2023-03-31T17:26:33;18.40;99.90
41435;DHT22;27177;22.262;114.192;2023-03-31T17:29:02;18.40;99.90
41435;DHT22;27177;22.262;114.192;2023-03-31T17:31:28;18.40;99.90
41435;DHT22;27177;22.262;114.192;2023-03-31T17:33:56;18.40;99.90
41435;DHT22;27177;22.262;114.192;2023-03-31T17:36:23;18.30;99.90
41435;DHT22;27177;22.262;114.192;2023-03-31T17:38:50;18.30;99.90
41435;DHT22;27177;22.262;114.192;2023-03-31T17:41:16;18.30;99.90
41435;DHT22;27177;22.262;114.192;2023-03-31T17:43:46;18.30;99.90
41435;DHT22;27177;22.262;114.192;2023-03-31T17:46:14;18.30;99.90
41435;DHT22;27177;22.262;114.192;2023-03-31T17:48:42;18.30;99.90
41435;DHT22;27177;22.262;114.192;2023-03-31T17:51:10;18.30;99.90
41435;DHT22;27177;22.262;114.192;2023-03-31T17:53:38;18.30;99.90
41435;DHT22;27177;22.262;114.192;2023-03-31T17:56:05;18.30;99.90
41435;DHT22;27177;22.262;114.192;2023-03-31T18:01:07;18.30;99.90
41435;DHT22;27177;22.262;114.192;2023-03-31T18:03:34;18.40;99.90
41435;DHT22;27177;22.262;114.192;2023-03-31T18:06:10;18.40;99.90
41435;DHT22;27177;22.262;114.192;2023-03-31T18:08:39;18.40;99.90
41435;DHT22;27177;22.262;114.192;2023-03-31T18:11:06;18.50;99.90
41435;DHT22;27177;22.262;114.192;2023-03-31T18:13:34;18.50;99.90
41435;DHT22;27177;22.262;114.192;2023-03-31T18:16:03;18.50;99.90
41435;DHT22;27177;22.262;114.192;2023-03-31T18:18:30;18.50;99.90
41435;DHT22;27177;22.262;114.192;2023-03-31T18:21:01;18.50;99.90
41435;DHT22;27177;22.262;114.192;2023-03-31T18:23:27;18.60;99.90
41435;DHT22;27177;22.262;114.192;2023-03-31T18:25:53;18.50;99.90
41435;DHT22;27177;22.262;114.192;2023-03-31T18:28:20;18.60;99.90
41435;DHT22;27177;22.262;114.192;2023-03-31T18:33:27;18.60;99.90
41435;DHT22;27177;22.262;114.192;2023-03-31T18:35:53;18.60;99.90
41435;DHT22;27177;22.262;114.192;2023-03-31T18:38:25;18.60;99.90
41435;DHT22;27177;22.262;114.192;2023-03-31T18:40:52;18.60;99.90
41435;DHT22;27177;22.262;114.192;2023-03-31T18:43:19;18.60;99.90
41435;DHT22;27177;22.262;114.192;2023-03-31T18:45:47;18.60;99.90
41435;DHT22;27177;22.262;114.192;2023-03-31T18:48:14;18.50;99.90
41435;DHT22;27177;22.262;114.192;2023-03-31T18:53:18;18.60;99.90
41435;DHT22;27177;22.262;114.192;2023-03-31T18:55:48;18.60;99.90
41435;DHT22;27177;22.262;114.192;2023-03-31T18:58:15;18.60;99.90
41435;DHT22;27177;22.262;114.192;2023-03-31T19:00:42;18.50;99.90
41435;DHT22;27177;22.262;114.192;2023-03-31T19:03:18;18.60;99.90
41435;DHT22;27177;22.262;114.192;2023-03-31T19:05:44;18.60;99.90
41435;DHT22;27177;22.262;114.192;2023-03-31T19:10:38;18.60;99.90
41435;DHT22;27177;22.262;114.192;2023-03-31T19:13:04;18.60;99.90
41435;DHT22;27177;22.262;114.192;2023-03-31T19:15:31;18.60;99.90
41435;DHT22;27177;22.262;114.192;2023-03-31T19:17:57;18.60;99.90
41435;DHT22;27177;22.262;114.192;2023-03-31T19:20:25;18.60;99.90
41435;DHT22;27177;22.262;114.192;2023-03-31T19:25:27;18.60;99.90
41435;DHT22;27177;22.262;114.192;2023-03-31T19:27:53;18.60;99.90
41435;DHT22;27177;22.262;114.192;2023-03-31T19:30:21;18.60;99.90
41435;DHT22;27177;22.262;114.192;2023-03-31T19:32:48;18.60;99.90
41435;DHT22;27177;22.262;114.192;2023-03-31T19:35:20;18.60;99.90
41435;DHT22;27177;22.262;114.192;2023-03-31T19:37:48;18.60;99.90
41435;DHT22;27177;22.262;114.192;2023-03-31T19:40:17;18.60;99.90
41435;DHT22;27177;22.262;114.192;2023-03-31T19:42:44;18.60;99.90
41435;DHT22;27177;22.262;114.192;2023-03-31T19:45:12;18.60;99.90
41435;DHT22;27177;22.262;114.192;2023-03-31T19:47:39;18.70;99.90
41435;DHT22;27177;22.262;114.192;2023-03-31T19:50:14;18.60;99.90
41435;DHT22;27177;22.262;114.192;2023-03-31T19:52:41;18.60;99.90
41435;DHT22;27177;22.262;114.192;2023-03-31T19:55:25;18.70;99.90
41435;DHT22;27177;22.262;114.192;2023-03-31T19:57:55;18.60;99.90
41435;DHT22;27177;22.262;114.192;2023-03-31T20:00:23;18.60;99.90
41435;DHT22;27177;22.262;114.192;2023-03-31T20:02:51;18.60;99.90
41435;DHT22;27177;22.262;114.192;2023-03-31T20:05:18;18.60;99.90
41435;DHT22;27177;22.262;114.192;2023-03-31T20:07:45;18.60;99.90
41435;DHT22;27177;22.262;114.192;2023-03-31T20:10:12;18.60;99.90
41435;DHT22;27177;22.262;114.192;2023-03-31T20:12:39;18.60;99.90
41435;DHT22;27177;22.262;114.192;2023-03-31T20:15:09;18.60;99.90
41435;DHT22;27177;22.262;114.192;2023-03-31T20:17:35;18.60;99.90
41435;DHT22;27177;22.262;114.192;2023-03-31T20:20:03;18.60;99.90
41435;DHT22;27177;22.262;114.192;2023-03-31T20:22:30;18.70;99.90
41435;DHT22;27177;22.262;114.192;2023-03-31T20:24:57;18.70;99.90
41435;DHT22;27177;22.262;114.192;2023-03-31T20:27:25;18.70;99.90
41435;DHT22;27177;22.262;114.192;2023-03-31T20:29:51;18.70;99.90
41435;DHT22;27177;22.262;114.192;2023-03-31T20:37:25;18.70;99.90
41435;DHT22;27177;22.262;114.192;2023-03-31T20:39:51;18.70;99.90
41435;DHT22;27177;22.262;114.192;2023-03-31T20:42:18;18.70;99.90
41435;DHT22;27177;22.262;114.192;2023-03-31T20:44:46;18.70;99.90
41435;DHT22;27177;22.262;114.192;2023-03-31T20:47:12;18.70;99.90
41435;DHT22;27177;22.262;114.192;2023-03-31T20:49:39;18.70;99.90
41435;DHT22;27177;22.262;114.192;2023-03-31T20:52:05;18.70;99.90
41435;DHT22;27177;22.262;114.192;2023-03-31T20:54:31;18.70;99.90
41435;DHT22;27177;22.262;114.192;2023-03-31T20:56:58;18.70;99.90
41435;DHT22;27177;22.262;114.192;2023-03-31T20:59:36;18.70;99.90
41435;DHT22;27177;22.262;114.192;2023-03-31T21:02:02;18.70;99.90
41435;DHT22;27177;22.262;114.192;2023-03-31T21:04:31;18.70;99.90
41435;DHT22;27177;22.262;114.192;2023-03-31T21:06:57;18.70;99.90
41435;DHT22;27177;22.262;114.192;2023-03-31T21:09:36;18.70;99.90
41435;DHT22;27177;22.262;114.192;2023-03-31T21:12:02;18.70;99.90
41435;DHT22;27177;22.262;114.192;2023-03-31T21:14:29;18.70;99.90
41435;DHT22;27177;22.262;114.192;2023-03-31T21:17:03;18.60;99.90
41435;DHT22;27177;22.262;114.192;2023-03-31T21:19:31;18.70;99.90
41435;DHT22;27177;22.262;114.192;2023-03-31T21:22:01;18.60;99.90
41435;DHT22;27177;22.262;114.192;2023-03-31T21:24:32;18.70;99.90
41435;DHT22;27177;22.262;114.192;2023-03-31T21:27:00;18.70;99.90
41435;DHT22;27177;22.262;114.192;2023-03-31T21:29:29;18.60;99.90
41435;DHT22;27177;22.262;114.192;2023-03-31T21:31:56;18.60;99.90
41435;DHT22;27177;22.262;114.192;2023-03-31T21:34:23;18.60;99.90
41435;DHT22;27177;22.262;114.192;2023-03-31T21:36:49;18.60;99.90
41435;DHT22;27177;22.262;114.192;2023-03-31T21:39:15;18.60;99.90
41435;DHT22;27177;22.262;114.192;2023-03-31T21:41:42;18.70;99.90
41435;DHT22;27177;22.262;114.192;2023-03-31T21:44:08;18.60;99.90
41435;DHT22;27177;22.262;114.192;2023-03-31T21:46:34;18.60;99.90
41435;DHT22;27177;22.262;114.192;2023-03-31T21:49:01;18.60;99.90
41435;DHT22;27177;22.262;114.192;2023-03-31T21:51:27;18.60;99.90
41435;DHT22;27177;22.262;114.192;2023-03-31T21:53:53;18.60;99.90